Time;durP1;ratioP1;P1;durP2;ratioP2;P2;SDS_P1;SDS_P2;PMS_P1;PMS_P2;Temp;Humidity;BMP_temperature;BMP_pressure;BME280_temperature;BME280_humidity;BME280_pressure;Samples;Min_cycle;Max_cycle;Signal;HPM_P1;HPM_P2
2021/06/03 00:02:11;;;;;;;2.85;2.28;;;21.40;55.20;;;;;;5000871;28;20886;-71
2021/06/03 00:04:39;;;;;;;3.97;2.30;;;21.40;54.90;;;;;;4999036;28;20509;-71
2021/06/03 00:07:07;;;;;;;4.85;2.22;;;21.30;55.00;;;;;;5000309;28;20120;-72
2021/06/03 00:09:34;;;;;;;3.53;2.33;;;21.40;54.70;;;;;;5000638;28;20054;-71
2021/06/03 00:12:01;;;;;;;4.15;2.50;;;21.50;54.80;;;;;;5004241;28;20069;-71
2021/06/03 00:14:28;;;;;;;4.70;2.80;;;21.40;54.80;;;;;;5000655;28;20050;-71
2021/06/03 00:16:55;;;;;;;5.22;2.55;;;21.50;55.00;;;;;;5000815;28;20058;-72
2021/06/03 00:19:21;;;;;;;3.75;2.33;;;21.50;54.80;;;;;;5024686;28;20053;-73
2021/06/03 00:21:49;;;;;;;3.40;2.25;;;21.50;55.00;;;;;;5001986;28;20476;-72
2021/06/03 00:24:16;;;;;;;3.20;2.40;;;21.50;55.00;;;;;;5005154;28;20144;-72
2021/06/03 00:26:43;;;;;;;8.63;2.47;;;21.50;55.00;;;;;;5004308;28;20081;-72
2021/06/03 00:29:11;;;;;;;4.03;2.55;;;21.50;55.10;;;;;;5003168;28;20806;-72
2021/06/03 00:31:39;;;;;;;4.22;2.70;;;21.40;55.20;;;;;;5003639;28;20157;-72
2021/06/03 00:34:06;;;;;;;3.72;2.40;;;21.20;55.50;;;;;;5003245;28;20382;-72
2021/06/03 00:36:33;;;;;;;4.20;2.70;;;21.10;56.10;;;;;;5004472;28;20087;-72
2021/06/03 00:38:59;;;;;;;5.32;2.45;;;21.10;56.10;;;;;;5003809;28;20545;-73
2021/06/03 00:41:26;;;;;;;14.85;2.80;;;21.00;56.30;;;;;;5006286;28;20489;-72
2021/06/03 00:43:53;;;;;;;5.03;2.80;;;21.00;56.40;;;;;;5004369;28;20845;-73
2021/06/03 00:46:20;;;;;;;9.93;3.03;;;21.10;56.20;;;;;;5002796;28;20550;-73
2021/06/03 00:48:47;;;;;;;3.20;2.42;;;21.20;56.00;;;;;;5001879;28;20061;-72
2021/06/03 00:51:14;;;;;;;5.32;2.53;;;21.20;56.20;;;;;;5001908;28;20076;-72
2021/06/03 00:53:43;;;;;;;4.75;2.47;;;21.20;56.20;;;;;;4999337;28;20184;-72
2021/06/03 00:56:10;;;;;;;3.03;2.60;;;21.20;56.00;;;;;;5002527;28;20158;-73
2021/06/03 00:58:37;;;;;;;3.40;2.60;;;21.20;56.00;;;;;;5001184;28;20233;-72
2021/06/03 01:01:05;;;;;;;4.13;2.67;;;21.20;56.00;;;;;;5004767;28;20543;-73
2021/06/03 01:03:33;;;;;;;5.22;2.78;;;21.10;56.20;;;;;;5005210;28;20581;-72
2021/06/03 01:06:06;;;;;;;4.32;2.60;;;20.90;56.80;;;;;;5004105;28;20141;-72
2021/06/03 01:08:37;;;;;;;7.07;2.88;;;20.90;57.10;;;;;;5000271;28;20057;-72
2021/06/03 01:11:13;;;;;;;6.70;3.10;;;20.80;57.20;;;;;;5003275;28;20049;-73
2021/06/03 01:13:56;;;;;;;6.80;3.10;;;20.80;57.60;;;;;;5002009;28;20549;-72
2021/06/03 01:16:25;;;;;;;3.78;2.88;;;20.70;57.80;;;;;;5002830;28;20077;-73
2021/06/03 01:18:53;;;;;;;5.47;3.15;;;20.80;57.30;;;;;;4999360;28;20054;-73
2021/06/03 01:21:34;;;;;;;5.75;3.20;;;20.70;57.30;;;;;;4999477;28;20061;-73
2021/06/03 01:24:30;;;;;;;4.90;3.17;;;20.60;57.30;;;;;;5002429;28;20133;-72
2021/06/03 01:27:00;;;;;;;6.05;3.58;;;20.60;57.30;;;;;;5023223;28;20081;-73
2021/06/03 01:29:29;;;;;;;5.43;3.60;;;20.50;57.40;;;;;;5002431;28;20049;-72
2021/06/03 01:31:57;;;;;;;5.90;3.17;;;20.40;57.60;;;;;;5004287;28;20073;-72
2021/06/03 01:34:27;;;;;;;7.50;3.33;;;20.50;57.50;;;;;;5004129;28;20121;-72
2021/06/03 01:36:54;;;;;;;17.05;3.83;;;20.30;58.10;;;;;;5001857;28;21038;-72
2021/06/03 01:39:21;;;;;;;4.20;3.30;;;20.30;58.40;;;;;;5000647;28;20481;-73
2021/06/03 01:41:48;;;;;;;5.32;3.47;;;20.10;58.40;;;;;;5023526;28;20052;-72
2021/06/03 01:44:16;;;;;;;6.28;3.20;;;20.00;58.50;;;;;;4999678;28;20140;-73
2021/06/03 01:46:43;;;;;;;4.18;3.40;;;20.00;58.40;;;;;;4996434;28;20061;-73
2021/06/03 01:49:10;;;;;;;5.43;3.42;;;19.90;58.30;;;;;;5000341;28;20053;-73
2021/06/03 01:51:37;;;;;;;3.40;3.10;;;19.80;58.60;;;;;;5001103;28;20790;-73
2021/06/03 01:54:04;;;;;;;5.53;3.70;;;19.80;58.20;;;;;;5003623;28;20084;-73
2021/06/03 01:56:31;;;;;;;8.50;3.38;;;19.90;58.10;;;;;;5024151;28;20187;-73
2021/06/03 01:58:58;;;;;;;5.07;3.40;;;19.80;58.30;;;;;;5001466;28;20141;-73
2021/06/03 02:01:25;;;;;;;6.13;3.60;;;19.70;58.50;;;;;;5000573;28;20136;-73
2021/06/03 02:03:52;;;;;;;5.53;3.30;;;19.70;58.90;;;;;;5001524;28;20054;-73
2021/06/03 02:06:18;;;;;;;5.05;3.17;;;19.70;58.80;;;;;;5004095;28;20503;-73
2021/06/03 02:08:45;;;;;;;6.63;3.65;;;19.90;58.60;;;;;;5002977;28;20049;-72
2021/06/03 02:11:12;;;;;;;4.45;3.33;;;19.80;58.70;;;;;;5001695;28;20147;-73
2021/06/03 02:13:44;;;;;;;8.75;3.67;;;20.00;58.60;;;;;;5001479;28;20871;-73
2021/06/03 02:16:36;;;;;;;7.45;3.80;;;20.10;58.20;;;;;;5000409;28;20521;-72
2021/06/03 02:19:15;;;;;;;6.43;3.60;;;20.20;58.00;;;;;;4997772;28;20112;-72
2021/06/03 02:21:47;;;;;;;5.32;3.67;;;20.30;58.10;;;;;;5028307;28;20144;-73
2021/06/03 02:24:15;;;;;;;5.65;3.63;;;20.20;58.90;;;;;;5000627;28;20141;-73
2021/06/03 02:26:43;;;;;;;5.65;3.63;;;19.90;59.20;;;;;;5028366;28;20133;-73
2021/06/03 02:29:12;;;;;;;9.50;4.00;;;19.80;59.50;;;;;;5002971;28;20508;-72
2021/06/03 02:31:39;;;;;;;9.07;3.63;;;19.70;59.60;;;;;;5000769;28;20077;-72
2021/06/03 02:34:07;;;;;;;5.05;3.60;;;19.80;59.40;;;;;;5003740;28;20056;-72
2021/06/03 02:36:34;;;;;;;6.07;3.55;;;19.80;59.60;;;;;;5001244;28;21541;-73
2021/06/03 02:39:04;;;;;;;7.45;3.72;;;19.70;59.80;;;;;;5000622;28;20060;-73
2021/06/03 02:41:31;;;;;;;7.25;3.85;;;19.70;60.10;;;;;;5029912;28;20137;-72
2021/06/03 02:43:58;;;;;;;7.40;3.92;;;19.60;60.20;;;;;;5000810;28;20050;-73
2021/06/03 02:46:25;;;;;;;5.53;3.75;;;19.60;60.60;;;;;;5000203;28;20491;-72
2021/06/03 02:48:52;;;;;;;7.47;3.50;;;19.60;60.20;;;;;;5002368;28;20057;-73
2021/06/03 02:51:19;;;;;;;7.57;3.40;;;19.60;60.20;;;;;;4994475;28;20133;-73
2021/06/03 02:53:47;;;;;;;8.80;4.03;;;19.80;59.80;;;;;;5001590;28;20085;-73
2021/06/03 02:56:14;;;;;;;6.22;3.92;;;19.80;59.60;;;;;;5007618;28;20196;-72
2021/06/03 02:58:41;;;;;;;6.78;3.58;;;20.00;59.30;;;;;;5002915;28;20156;-72
2021/06/03 03:01:08;;;;;;;6.07;3.65;;;20.00;59.40;;;;;;5008201;28;20374;-71
2021/06/03 03:03:35;;;;;;;8.85;3.58;;;19.80;59.90;;;;;;5006671;28;20046;-71
2021/06/03 03:06:04;;;;;;;4.97;3.40;;;19.90;60.00;;;;;;5006439;28;20165;-71
2021/06/03 03:08:31;;;;;;;8.38;4.00;;;19.90;60.70;;;;;;5007806;28;20133;-71
2021/06/03 03:11:00;;;;;;;5.55;3.80;;;19.80;60.10;;;;;;5008071;28;20493;-71
2021/06/03 03:13:28;;;;;;;10.93;4.03;;;19.80;60.50;;;;;;5005759;28;20481;-74
2021/06/03 03:15:55;;;;;;;9.00;4.25;;;19.70;61.00;;;;;;5009342;28;20077;-74
2021/06/03 03:18:21;;;;;;;11.38;4.05;;;19.70;61.10;;;;;;4998489;28;20167;-74
2021/06/03 03:20:48;;;;;;;3.70;3.25;;;19.80;61.30;;;;;;5007401;28;20153;-74
2021/06/03 03:23:16;;;;;;;14.52;4.32;;;19.80;61.50;;;;;;5008198;28;20129;-71
2021/06/03 03:25:43;;;;;;;6.65;4.20;;;19.80;61.40;;;;;;5009496;28;20137;-72
2021/06/03 03:28:10;;;;;;;6.05;3.85;;;19.90;61.60;;;;;;5009395;28;20080;-71
2021/06/03 03:30:42;;;;;;;5.45;3.72;;;19.90;61.50;;;;;;5006908;28;20132;-72
2021/06/03 03:33:11;;;;;;;8.80;4.15;;;20.00;61.40;;;;;;5006180;28;20041;-72
2021/06/03 03:35:39;;;;;;;6.38;4.03;;;20.00;61.90;;;;;;5005147;28;20077;-75
2021/06/03 03:38:06;;;;;;;7.90;4.07;;;19.80;62.90;;;;;;5004652;28;20136;-75
2021/06/03 03:40:33;;;;;;;12.80;3.83;;;19.70;63.40;;;;;;5008239;28;20559;-75
2021/06/03 03:43:00;;;;;;;5.57;3.97;;;19.70;64.30;;;;;;5010530;28;20133;-75
2021/06/03 03:45:27;;;;;;;7.15;3.65;;;19.80;64.60;;;;;;5002668;28;20129;-75
2021/06/03 03:47:54;;;;;;;7.20;3.40;;;19.80;64.80;;;;;;5014126;28;20084;-75
2021/06/03 03:50:22;;;;;;;5.85;3.97;;;19.80;65.00;;;;;;5010023;28;20085;-75
2021/06/03 03:52:50;;;;;;;7.63;4.00;;;20.00;64.80;;;;;;5006445;28;20043;-75
2021/06/03 03:55:17;;;;;;;10.13;4.20;;;19.90;65.20;;;;;;5012633;28;20062;-75
2021/06/03 03:57:46;;;;;;;6.15;3.95;;;19.90;65.60;;;;;;5011967;28;20080;-75
2021/06/03 04:00:20;;;;;;;5.32;3.42;;;19.90;65.90;;;;;;5008546;28;20045;-75
2021/06/03 04:02:47;;;;;;;5.57;3.72;;;19.90;66.00;;;;;;5013710;28;20416;-75
2021/06/03 04:05:14;;;;;;;4.82;3.72;;;19.90;66.00;;;;;;5009335;28;20149;-75
2021/06/03 04:07:41;;;;;;;5.80;3.72;;;20.00;65.90;;;;;;5007133;28;20057;-75
2021/06/03 04:10:11;;;;;;;4.47;3.63;;;19.90;65.90;;;;;;5007432;28;20100;-75
2021/06/03 04:12:38;;;;;;;8.55;3.72;;;20.00;65.90;;;;;;5004929;28;20134;-75
2021/06/03 04:15:06;;;;;;;9.15;3.85;;;20.10;65.80;;;;;;5008404;28;20041;-75
2021/06/03 04:17:33;;;;;;;5.82;3.78;;;20.00;65.80;;;;;;5011676;28;20074;-75
2021/06/03 04:20:00;;;;;;;5.85;4.00;;;20.00;66.40;;;;;;5019851;28;20415;-75
2021/06/03 04:22:27;;;;;;;5.75;3.47;;;19.90;66.80;;;;;;5009769;28;20141;-75
2021/06/03 04:24:54;;;;;;;5.70;3.45;;;19.80;67.30;;;;;;5009431;28;20125;-74
2021/06/03 04:27:20;;;;;;;9.70;4.30;;;19.90;66.90;;;;;;5011346;28;20074;-75
2021/06/03 04:29:48;;;;;;;6.47;3.92;;;19.90;66.90;;;;;;5008534;28;20508;-76
2021/06/03 04:32:14;;;;;;;8.82;3.90;;;20.00;66.70;;;;;;5008365;28;20145;-75
2021/06/03 04:34:41;;;;;;;11.65;4.05;;;20.00;66.60;;;;;;5027697;28;20192;-75
2021/06/03 04:37:09;;;;;;;8.27;4.43;;;20.00;66.60;;;;;;5007292;28;20556;-75
2021/06/03 04:39:37;;;;;;;7.72;3.72;;;20.00;66.70;;;;;;5002374;28;20520;-74
2021/06/03 04:42:05;;;;;;;6.10;3.58;;;20.10;66.60;;;;;;5010160;28;20556;-75
2021/06/03 04:44:32;;;;;;;8.07;4.22;;;20.10;66.30;;;;;;5007845;28;20132;-75
2021/06/03 04:46:58;;;;;;;5.43;3.92;;;20.20;66.00;;;;;;5009964;28;20253;-75
2021/06/03 04:49:25;;;;;;;4.40;3.60;;;20.20;66.10;;;;;;5007769;28;20041;-75
2021/06/03 04:51:52;;;;;;;6.30;4.05;;;20.20;66.50;;;;;;5006355;28;20053;-75
2021/06/03 04:54:19;;;;;;;5.65;3.90;;;20.20;66.50;;;;;;5008281;28;20042;-75
2021/06/03 04:56:46;;;;;;;8.85;4.03;;;20.20;66.60;;;;;;5008580;28;20145;-75
2021/06/03 04:59:13;;;;;;;8.68;4.15;;;20.20;66.60;;;;;;5007544;28;20042;-75
2021/06/03 05:01:41;;;;;;;6.05;3.95;;;20.10;67.20;;;;;;5009945;28;20137;-75
2021/06/03 05:04:08;;;;;;;6.63;3.90;;;20.30;66.70;;;;;;5002378;28;20050;-75
2021/06/03 05:06:35;;;;;;;7.00;3.95;;;20.30;66.30;;;;;;5009195;28;20066;-75
2021/06/03 05:09:02;;;;;;;7.63;4.53;;;20.30;66.70;;;;;;5008439;28;20073;-75
2021/06/03 05:11:29;;;;;;;7.45;4.63;;;20.10;67.20;;;;;;5009888;28;20046;-75
2021/06/03 05:13:56;;;;;;;6.15;4.22;;;20.00;67.70;;;;;;5009328;28;20153;-75
2021/06/03 05:16:23;;;;;;;5.45;4.32;;;20.10;68.10;;;;;;5006711;28;20142;-75
2021/06/03 05:18:50;;;;;;;10.35;4.38;;;20.20;67.70;;;;;;5010413;28;20511;-75
2021/06/03 05:21:17;;;;;;;6.60;4.45;;;20.20;67.70;;;;;;5006094;28;20137;-75
2021/06/03 05:23:43;;;;;;;7.20;4.38;;;20.30;67.70;;;;;;5009987;28;20064;-75
2021/06/03 05:26:10;;;;;;;7.70;4.22;;;20.40;67.50;;;;;;5008617;28;20148;-75
2021/06/03 05:28:37;;;;;;;6.32;4.53;;;20.30;67.60;;;;;;5003175;28;20164;-76
2021/06/03 05:31:04;;;;;;;6.63;4.30;;;20.30;67.70;;;;;;5010168;28;20133;-75
2021/06/03 05:33:30;;;;;;;6.55;4.25;;;20.40;67.50;;;;;;5008963;28;20136;-76
2021/06/03 05:35:57;;;;;;;5.75;4.50;;;20.80;66.90;;;;;;5009296;28;20141;-76
2021/06/03 05:38:24;;;;;;;6.22;4.53;;;21.10;65.90;;;;;;5007832;28;20141;-76
2021/06/03 05:40:51;;;;;;;9.00;4.18;;;20.80;66.30;;;;;;5006811;28;20045;-75
2021/06/03 05:43:18;;;;;;;5.40;4.47;;;20.90;66.20;;;;;;5007113;28;20074;-75
2021/06/03 05:45:45;;;;;;;6.82;4.43;;;20.90;66.20;;;;;;5009308;28;20077;-75
2021/06/03 05:48:12;;;;;;;7.28;4.63;;;20.80;66.80;;;;;;5008127;28;20038;-75
2021/06/03 05:50:39;;;;;;;7.70;4.63;;;21.00;66.20;;;;;;5005858;28;20078;-75
2021/06/03 05:53:05;;;;;;;10.80;4.90;;;20.80;66.60;;;;;;5002810;28;20156;-75
2021/06/03 05:55:32;;;;;;;7.55;4.63;;;20.70;66.90;;;;;;5006679;28;20050;-75
2021/06/03 05:57:59;;;;;;;6.25;4.43;;;20.90;66.90;;;;;;5005919;28;20520;-74
2021/06/03 06:00:31;;;;;;;5.88;4.45;;;20.90;66.30;;;;;;5008931;28;20751;-76
2021/06/03 06:03:02;;;;;;;6.80;4.70;;;20.90;66.90;;;;;;5008657;28;20537;-74
2021/06/03 06:08:17;;;;;;;6.95;3.95;;;21.50;66.50;;;;;;5006634;28;20164;-74
2021/06/03 06:10:43;;;;;;;6.82;4.22;;;21.70;65.10;;;;;;5007600;28;20582;-74
2021/06/03 06:13:11;;;;;;;7.53;4.30;;;21.60;65.20;;;;;;5008843;28;20540;-74
2021/06/03 06:15:38;;;;;;;7.90;4.60;;;21.50;65.60;;;;;;5010562;28;20116;-75
2021/06/03 06:18:06;;;;;;;6.88;4.35;;;21.60;65.40;;;;;;5005043;28;20054;-75
2021/06/03 06:20:34;;;;;;;6.90;4.00;;;21.60;65.60;;;;;;5009438;28;20143;-74
2021/06/03 06:23:02;;;;;;;6.20;4.38;;;21.60;65.40;;;;;;5008933;28;20046;-74
2021/06/03 06:25:29;;;;;;;5.95;3.92;;;21.30;66.20;;;;;;5006383;28;20073;-74
2021/06/03 06:27:57;;;;;;;5.95;4.28;;;21.40;66.50;;;;;;5007808;28;20452;-75
2021/06/03 06:30:26;;;;;;;6.13;4.10;;;21.30;66.80;;;;;;5008880;28;20137;-75
2021/06/03 06:32:54;;;;;;;6.55;4.20;;;21.50;66.20;;;;;;5009721;28;20057;-75
2021/06/03 06:35:21;;;;;;;7.57;3.95;;;21.70;65.90;;;;;;5008367;28;20052;-75
2021/06/03 06:37:48;;;;;;;7.68;3.95;;;21.70;65.40;;;;;;5003484;28;20713;-75
2021/06/03 06:40:15;;;;;;;6.03;3.75;;;21.60;65.10;;;;;;5008344;28;20096;-76
2021/06/03 06:42:41;;;;;;;5.97;4.03;;;21.60;65.50;;;;;;5001845;28;20076;-76
2021/06/03 06:45:10;;;;;;;6.80;3.80;;;21.60;65.80;;;;;;5002344;28;20073;-76
2021/06/03 06:47:37;;;;;;;5.72;4.10;;;21.70;65.50;;;;;;5006268;28;20070;-75
2021/06/03 06:50:07;;;;;;;5.07;3.22;;;21.80;65.00;;;;;;5003992;28;20045;-75
2021/06/03 06:52:34;;;;;;;5.95;3.00;;;21.90;64.10;;;;;;5005616;28;20456;-75
2021/06/03 06:55:02;;;;;;;6.00;2.65;;;22.80;63.00;;;;;;5009792;28;20108;-76
2021/06/03 06:57:29;;;;;;;4.90;2.90;;;23.00;60.80;;;;;;5008291;28;20142;-75
2021/06/03 06:59:56;;;;;;;4.32;3.03;;;23.20;60.80;;;;;;5007920;28;20136;-76
2021/06/03 07:02:22;;;;;;;7.10;3.38;;;23.10;61.10;;;;;;5007701;28;20613;-75
2021/06/03 07:04:49;;;;;;;8.07;3.05;;;22.60;61.30;;;;;;5008298;28;20084;-76
2021/06/03 07:07:17;;;;;;;4.25;3.10;;;22.60;61.30;;;;;;5003138;28;20342;-75
2021/06/03 07:09:43;;;;;;;6.32;2.97;;;22.70;61.20;;;;;;5008429;28;20080;-75
2021/06/03 07:12:12;;;;;;;5.28;3.08;;;22.80;61.10;;;;;;5007129;28;20042;-75
2021/06/03 07:14:39;;;;;;;4.05;2.75;;;22.70;61.20;;;;;;5006612;28;20433;-76
2021/06/03 07:17:07;;;;;;;6.43;3.05;;;22.80;61.30;;;;;;5004623;28;20061;-75
2021/06/03 07:19:34;;;;;;;4.40;2.97;;;23.00;61.00;;;;;;5008590;28;20153;-75
2021/06/03 07:22:01;;;;;;;6.28;2.88;;;23.30;60.40;;;;;;5009246;28;20084;-76
2021/06/03 07:24:27;;;;;;;5.93;4.07;;;23.50;59.90;;;;;;5012083;28;20133;-76
2021/06/03 07:26:54;;;;;;;3.28;2.72;;;23.50;59.40;;;;;;5013484;28;20064;-75
2021/06/03 07:29:21;;;;;;;3.83;3.00;;;23.40;60.00;;;;;;5010555;28;20045;-75
2021/06/03 07:31:48;;;;;;;6.32;2.60;;;23.60;59.70;;;;;;5009560;28;20176;-75
2021/06/03 07:34:15;;;;;;;5.38;2.95;;;23.30;59.40;;;;;;5011637;28;20066;-75
2021/06/03 07:36:41;;;;;;;5.28;2.65;;;23.30;59.60;;;;;;5008206;28;20189;-75
2021/06/03 07:39:08;;;;;;;3.60;2.65;;;23.20;59.50;;;;;;5009593;28;20165;-76
2021/06/03 07:41:35;;;;;;;3.53;2.30;;;23.20;58.70;;;;;;5006676;28;20104;-76
2021/06/03 07:44:03;;;;;;;5.13;2.50;;;23.30;59.10;;;;;;5011027;28;20468;-75
2021/06/03 07:46:31;;;;;;;4.57;2.50;;;23.40;58.80;;;;;;5005810;28;20078;-76
2021/06/03 07:48:59;;;;;;;4.38;2.70;;;23.40;59.00;;;;;;5009372;28;20053;-75
2021/06/03 07:51:26;;;;;;;3.17;2.53;;;23.30;59.30;;;;;;5008371;28;20104;-75
2021/06/03 07:53:57;;;;;;;4.60;2.78;;;23.30;59.50;;;;;;5009903;28;20049;-76
2021/06/03 07:56:23;;;;;;;4.53;2.60;;;23.30;59.50;;;;;;5009953;28;20145;-76
2021/06/03 07:58:50;;;;;;;3.55;2.58;;;23.30;59.20;;;;;;5010106;28;20062;-76
2021/06/03 08:01:17;;;;;;;3.65;2.40;;;23.30;58.80;;;;;;5009457;28;20075;-77
2021/06/03 08:03:44;;;;;;;3.10;2.80;;;23.30;59.40;;;;;;5011134;28;20053;-75
2021/06/03 08:06:11;;;;;;;4.85;2.65;;;23.40;59.50;;;;;;5009620;28;20465;-75
2021/06/03 08:08:38;;;;;;;6.03;3.10;;;23.30;59.60;;;;;;5012232;28;20046;-76
2021/06/03 08:11:06;;;;;;;5.43;2.60;;;23.30;59.90;;;;;;5011473;28;20050;-76
2021/06/03 08:13:34;;;;;;;6.10;2.53;;;23.30;59.60;;;;;;5006512;28;20092;-77
2021/06/03 08:16:02;;;;;;;4.50;2.88;;;23.30;59.60;;;;;;5009527;28;20140;-75
2021/06/03 08:18:34;;;;;;;5.68;2.75;;;23.30;59.60;;;;;;5009141;28;20108;-75
2021/06/03 08:21:04;;;;;;;4.25;2.45;;;23.50;59.70;;;;;;5008498;28;20046;-76
2021/06/03 08:23:32;;;;;;;3.10;2.38;;;23.60;58.90;;;;;;5003379;28;20081;-75
2021/06/03 08:25:59;;;;;;;3.78;2.67;;;23.50;59.20;;;;;;5003219;28;20049;-75
2021/06/03 08:28:28;;;;;;;3.20;2.50;;;23.60;59.30;;;;;;4997963;28;20704;-75
2021/06/03 08:30:56;;;;;;;6.70;3.05;;;23.50;59.50;;;;;;5004746;28;20489;-75
2021/06/03 08:33:24;;;;;;;4.55;3.13;;;23.60;59.80;;;;;;5005115;28;20137;-75
2021/06/03 08:35:52;;;;;;;4.57;2.65;;;23.40;60.20;;;;;;5003428;28;20160;-76
2021/06/03 08:38:19;;;;;;;7.07;3.10;;;23.40;60.50;;;;;;5004817;28;20473;-77
2021/06/03 08:40:49;;;;;;;3.72;2.70;;;23.70;59.80;;;;;;5002503;28;20072;-76
2021/06/03 08:43:17;;;;;;;4.32;2.50;;;23.60;59.40;;;;;;5002175;28;20157;-76
2021/06/03 08:45:45;;;;;;;5.03;2.33;;;23.80;59.30;;;;;;5004651;28;20050;-76
2021/06/03 08:48:13;;;;;;;4.20;2.47;;;23.90;58.60;;;;;;5029096;28;20057;-76
2021/06/03 08:50:43;;;;;;;4.70;2.70;;;23.90;58.50;;;;;;5002972;28;20347;-76
2021/06/03 08:53:11;;;;;;;6.28;4.13;;;23.90;58.60;;;;;;5004920;28;20090;-75
2021/06/03 08:58:26;;;;;;;22.77;13.65;;;23.70;59.60;;;;;;5004759;28;20559;-76
2021/06/03 09:00:56;;;;;;;44.58;24.17;;;23.70;58.90;;;;;;5002146;28;20533;-76
2021/06/03 09:03:25;;;;;;;22.33;11.35;;;23.70;57.80;;;;;;5004471;28;20061;-75
2021/06/03 09:05:53;;;;;;;70.83;36.37;;;23.70;59.10;;;;;;5005110;28;20514;-75
2021/06/03 09:08:21;;;;;;;25.83;13.10;;;23.80;59.10;;;;;;5003296;28;20077;-75
2021/06/03 09:10:56;;;;;;;9.15;4.40;;;24.00;57.90;;;;;;4997628;28;20061;-76
2021/06/03 09:13:31;;;;;;;15.75;8.68;;;24.10;57.60;;;;;;5030023;28;20129;-75
2021/06/03 09:16:21;;;;;;;2.85;2.08;;;23.90;57.50;;;;;;5002210;28;20054;-74
2021/06/03 09:18:52;;;;;;;4.97;1.80;;;24.10;57.20;;;;;;5002202;28;20054;-73
2021/06/03 09:21:26;;;;;;;23.40;9.68;;;24.10;56.80;;;;;;5004171;28;20494;-76
2021/06/03 09:24:00;;;;;;;6.07;3.25;;;24.00;57.60;;;;;;5001017;28;20435;-76
2021/06/03 09:26:47;;;;;;;10.32;3.03;;;24.00;57.70;;;;;;5002052;28;20060;-75
2021/06/03 09:29:22;;;;;;;7.40;4.45;;;24.00;57.40;;;;;;5002345;28;20132;-76
2021/06/03 09:31:50;;;;;;;5.97;2.50;;;24.10;57.20;;;;;;5002493;28;20140;-76
2021/06/03 09:34:18;;;;;;;6.85;3.70;;;24.20;57.10;;;;;;5003811;28;20140;-76
2021/06/03 09:36:58;;;;;;;21.42;10.30;;;24.40;57.30;;;;;;5002233;28;20116;-76
2021/06/03 09:39:28;;;;;;;19.63;9.88;;;24.50;58.00;;;;;;4997943;28;20120;-76
2021/06/03 09:41:57;;;;;;;3.97;2.60;;;24.50;58.00;;;;;;5023251;28;20102;-77
2021/06/03 09:44:27;;;;;;;3.72;2.50;;;24.50;57.90;;;;;;5003052;28;20144;-76
2021/06/03 09:47:02;;;;;;;32.10;16.17;;;24.20;57.70;;;;;;5002487;28;20054;-76
2021/06/03 09:49:34;;;;;;;6.20;3.85;;;24.30;58.20;;;;;;5023533;28;20058;-75
2021/06/03 09:52:05;;;;;;;5.80;3.53;;;24.40;57.90;;;;;;5000701;28;20160;-76
2021/06/03 09:54:33;;;;;;;4.88;2.80;;;24.40;57.10;;;;;;5002466;28;20169;-76
2021/06/03 09:57:04;;;;;;;3.15;2.25;;;24.70;56.30;;;;;;5002472;28;20058;-76
2021/06/03 09:59:39;;;;;;;6.18;3.05;;;24.60;56.50;;;;;;5001844;28;20084;-74
2021/06/03 10:02:21;;;;;;;6.65;4.30;;;24.60;57.10;;;;;;5025836;28;20141;-77
2021/06/03 10:04:56;;;;;;;14.40;7.45;;;24.80;56.40;;;;;;5000639;28;20127;-75
2021/06/03 10:07:23;;;;;;;8.75;3.95;;;24.80;57.20;;;;;;5018950;28;20057;-75
2021/06/03 10:10:09;;;;;;;15.65;6.57;;;24.80;57.20;;;;;;5001363;28;21363;-76
2021/06/03 10:12:45;;;;;;;8.63;4.95;;;24.80;57.00;;;;;;5003331;28;20811;-76
2021/06/03 10:15:33;;;;;;;7.25;4.75;;;25.10;57.00;;;;;;5001938;28;20064;-76
2021/06/03 10:18:08;;;;;;;6.20;4.45;;;25.10;56.40;;;;;;5001906;28;20401;-75
2021/06/03 10:20:47;;;;;;;5.10;3.03;;;25.10;56.00;;;;;;5002056;28;20148;-75
2021/06/03 10:23:21;;;;;;;7.13;4.13;;;24.90;55.90;;;;;;5000078;28;20172;-72
2021/06/03 10:26:01;;;;;;;6.65;3.78;;;25.10;56.40;;;;;;5003741;28;20042;-74
2021/06/03 10:28:29;;;;;;;14.13;4.43;;;25.30;56.30;;;;;;4998936;28;20435;-73
2021/06/03 10:31:01;;;;;;;5.43;2.88;;;25.20;55.40;;;;;;5000886;28;20070;-75
2021/06/03 10:33:30;;;;;;;3.97;2.72;;;25.20;55.60;;;;;;5001737;28;20160;-77
2021/06/03 10:36:02;;;;;;;4.80;2.58;;;25.10;55.90;;;;;;5021816;28;20438;-76
2021/06/03 10:38:29;;;;;;;5.63;3.00;;;25.30;55.10;;;;;;5002516;28;20137;-77
2021/06/03 10:40:59;;;;;;;4.28;2.95;;;25.30;55.00;;;;;;5003895;28;20452;-76
2021/06/03 10:43:29;;;;;;;5.80;2.83;;;25.40;54.80;;;;;;5003858;28;20533;-76
2021/06/03 10:45:56;;;;;;;9.05;2.90;;;25.40;54.50;;;;;;5002718;28;20742;-73
2021/06/03 10:48:23;;;;;;;10.18;4.53;;;25.40;55.30;;;;;;5002887;28;20057;-70
2021/06/03 10:50:52;;;;;;;6.40;2.85;;;25.30;55.60;;;;;;4996592;28;20487;-76
2021/06/03 10:53:25;;;;;;;4.63;2.83;;;25.40;55.20;;;;;;5001917;28;20081;-75
2021/06/03 10:56:08;;;;;;;5.38;3.00;;;25.20;55.50;;;;;;5027386;28;20064;-74
2021/06/03 10:58:39;;;;;;;6.72;3.67;;;25.20;55.90;;;;;;4999549;28;20517;-72
2021/06/03 11:01:07;;;;;;;3.95;2.65;;;25.40;55.50;;;;;;5002133;28;20424;-73
2021/06/03 11:03:50;;;;;;;4.40;2.92;;;25.40;55.30;;;;;;5000846;28;20049;-74
2021/06/03 11:06:21;;;;;;;5.30;3.03;;;25.40;55.90;;;;;;5000885;28;20478;-73
2021/06/03 11:08:57;;;;;;;4.22;2.55;;;25.40;55.50;;;;;;5003193;28;20042;-72
2021/06/03 11:11:35;;;;;;;5.55;2.88;;;25.50;55.90;;;;;;5007380;28;20069;-76
2021/06/03 11:14:06;;;;;;;;;;;25.70;55.90;;;;;;5009215;28;20506;-76
2021/06/03 11:16:35;;;;;;;4.70;2.72;;;25.80;55.30;;;;;;5001439;28;20021;-76
2021/06/03 11:19:02;;;;;;;;;;;25.90;54.50;;;;;;5008797;28;20062;-76
2021/06/03 11:21:36;;;;;;;6.53;2.78;;;25.90;54.20;;;;;;5008782;28;19960;-76
2021/06/03 11:24:23;;;;;;;3.00;2.40;;;25.80;54.70;;;;;;5008511;28;20533;-76
2021/06/03 11:26:56;;;;;;;7.65;3.03;;;25.90;54.40;;;;;;5007611;28;20072;-76
2021/06/03 11:29:34;;;;;;;3.50;2.22;;;26.10;54.10;;;;;;5003875;28;20054;-76
2021/06/03 11:32:04;;;;;;;7.88;2.45;;;26.30;52.90;;;;;;5008213;28;20048;-76
2021/06/03 11:34:40;;;;;;;3.30;2.47;;;26.10;52.90;;;;;;5006167;28;20049;-76
2021/06/03 11:37:22;;;;;;;5.47;2.60;;;26.10;53.20;;;;;;5005233;28;20111;-76
2021/06/03 11:40:07;;;;;;;4.65;2.47;;;26.20;53.20;;;;;;5006248;28;20473;-76
2021/06/03 11:42:38;;;;;;;4.78;2.63;;;26.40;53.40;;;;;;5021513;28;20133;-76
2021/06/03 11:45:25;;;;;;;3.28;2.30;;;26.60;52.70;;;;;;5016772;28;20084;-76
2021/06/03 11:47:53;;;;;;;7.30;2.45;;;26.40;52.40;;;;;;5003231;28;20037;-76
2021/06/03 11:50:20;;;;;;;4.65;2.15;;;26.40;52.40;;;;;;5005545;28;20042;-76
2021/06/03 11:52:56;;;;;;;4.90;2.40;;;26.30;53.00;;;;;;4996054;28;20061;-76
2021/06/03 11:55:50;;;;;;;2.47;2.28;;;26.60;52.50;;;;;;5008273;28;20058;-76
2021/06/03 11:58:25;;;;;;;3.63;2.30;;;26.60;52.10;;;;;;5007246;28;20132;-76
2021/06/03 12:01:04;;;;;;;4.45;2.80;;;26.50;52.20;;;;;;5022905;28;20712;-76
2021/06/03 12:03:41;;;;;;;4.55;2.20;;;26.60;52.50;;;;;;5010240;28;20073;-76
2021/06/03 12:06:23;;;;;;;3.03;2.20;;;26.80;51.80;;;;;;5009090;28;20076;-76
2021/06/03 12:08:54;;;;;;;4.32;2.30;;;26.80;52.10;;;;;;5025144;28;20565;-76
2021/06/03 12:11:33;;;;;;;3.63;2.58;;;27.10;51.20;;;;;;5002475;28;20481;-76
2021/06/03 12:14:16;;;;;;;4.28;2.33;;;27.80;50.70;;;;;;5011169;28;20048;-76
2021/06/03 12:16:52;;;;;;;2.90;2.15;;;28.40;49.00;;;;;;5010236;28;20077;-76
2021/06/03 12:19:23;;;;;;;4.15;2.30;;;30.30;47.00;;;;;;5006699;28;20053;-74
2021/06/03 12:22:00;;;;;;;3.08;2.00;;;33.30;42.20;;;;;;5009611;28;20052;-76
2021/06/03 12:24:46;;;;;;;2.88;2.28;;;37.40;35.80;;;;;;5012537;28;20140;-76
2021/06/03 12:27:32;;;;;;;8.40;1.98;;;39.30;32.50;;;;;;5011567;28;20212;-77
2021/06/03 12:30:16;;;;;;;6.38;2.20;;;41.00;30.00;;;;;;5009083;28;20150;-75
2021/06/03 12:33:00;;;;;;;3.78;2.00;;;39.90;30.30;;;;;;5007740;28;20525;-76
2021/06/03 12:35:45;;;;;;;1.95;1.63;;;39.30;31.00;;;;;;5009128;28;20617;-74
2021/06/03 12:38:48;;;;;;;4.82;1.70;;;41.10;29.80;;;;;;5011170;28;20411;-75
2021/06/03 12:41:35;;;;;;;3.53;1.90;;;41.30;29.40;;;;;;5008584;28;20128;-76
2021/06/03 12:44:09;;;;;;;4.05;1.98;;;37.90;29.80;;;;;;5011607;28;20508;-76
2021/06/03 12:46:42;;;;;;;2.63;1.75;;;38.20;32.40;;;;;;5039681;28;20488;-75
2021/06/03 12:49:14;;;;;;;2.67;1.77;;;40.50;31.20;;;;;;5011137;28;20379;-75
2021/06/03 12:52:05;;;;;;;3.80;1.67;;;37.20;32.20;;;;;;5021823;28;20561;-75
2021/06/03 12:54:33;;;;;;;3.22;1.48;;;35.00;34.70;;;;;;5006657;28;20042;-71
2021/06/03 12:57:04;;;;;;;3.47;1.77;;;36.20;34.80;;;;;;5008286;28;20072;-77
2021/06/03 12:59:34;;;;;;;5.43;1.88;;;34.90;35.50;;;;;;5010006;28;20129;-74
2021/06/03 13:02:04;;;;;;;3.08;1.70;;;33.90;35.90;;;;;;5004590;28;20069;-77
2021/06/03 13:04:41;;;;;;;4.18;1.75;;;32.70;38.10;;;;;;5008436;28;20053;-76
2021/06/03 13:07:14;;;;;;;3.72;1.70;;;30.40;40.00;;;;;;5011770;28;20050;-77